createdAt,value
2019-05-22T00:00:58.145Z,25.27
2019-05-22T00:04:12.306Z,26.85
2019-05-22T00:07:15.967Z,24.23
2019-05-22T00:10:26.149Z,25.50
2019-05-22T00:13:30.971Z,23.25
2019-05-22T00:16:35.395Z,22.37
2019-05-22T00:19:40.657Z,22.65
2019-05-22T00:22:48.320Z,24.12
2019-05-22T00:25:53.565Z,23.83
2019-05-22T00:28:57.488Z,22.40
2019-05-22T00:32:01.133Z,25.55
2019-05-22T00:35:06.454Z,25.52
2019-05-22T00:38:12.131Z,27.07
2019-05-22T00:41:18.028Z,34.35
2019-05-22T00:44:22.334Z,36.05
2019-05-22T00:47:25.839Z,37.38
2019-05-22T00:50:33.581Z,44.85
2019-05-22T00:53:43.253Z,40.52
2019-05-22T00:56:52.100Z,42.35
2019-05-22T00:59:57.666Z,41.08
2019-05-22T01:03:02.550Z,47.05
2019-05-22T01:06:08.999Z,42.30
2019-05-22T01:09:31.728Z,44.75
2019-05-22T01:15:40.727Z,44.45
2019-05-22T01:18:45.379Z,45.17
2019-05-22T01:21:50.704Z,49.42
2019-05-22T01:24:54.903Z,45.83
2019-05-22T01:27:58.448Z,49.77
2019-05-22T01:31:09.392Z,51.00
2019-05-22T01:34:13.621Z,53.15
2019-05-22T01:37:19.418Z,54.88
2019-05-22T01:40:39.600Z,52.83
2019-05-22T01:43:43.790Z,56.83
2019-05-22T01:46:48.814Z,61.55
2019-05-22T01:49:54.172Z,63.50
2019-05-22T01:52:58.155Z,69.75
2019-05-22T01:56:04.029Z,60.63
2019-05-22T01:59:09.606Z,60.80
2019-05-22T02:02:14.455Z,54.67
2019-05-22T02:05:18.370Z,57.43
2019-05-22T02:08:23.031Z,49.90
2019-05-22T02:11:28.419Z,56.48
2019-05-22T02:14:32.536Z,50.90
2019-05-22T02:17:37.362Z,47.70
2019-05-22T02:20:42.053Z,47.33
2019-05-22T02:23:47.533Z,46.13
2019-05-22T02:26:51.297Z,52.27
2019-05-22T02:29:55.664Z,51.02
2019-05-22T02:32:59.297Z,51.23
2019-05-22T02:36:03.713Z,51.20
2019-05-22T02:39:11.951Z,56.23
2019-05-22T02:42:30.920Z,54.83
2019-05-22T02:45:34.944Z,53.40
2019-05-22T02:48:42.330Z,53.68
2019-05-22T02:51:44.487Z,55.58
2019-05-22T02:54:48.800Z,52.50
2019-05-22T02:57:52.345Z,51.63
2019-05-22T03:01:02.758Z,54.25
2019-05-22T03:04:08.530Z,54.42
2019-05-22T03:07:12.066Z,59.40
2019-05-22T03:10:19.404Z,65.80
2019-05-22T03:13:26.476Z,63.42
2019-05-22T03:16:50.031Z,61.20
2019-05-22T03:19:54.213Z,67.67
2019-05-22T03:23:09.847Z,72.15
2019-05-22T03:26:15.423Z,69.00
2019-05-22T03:29:22.097Z,76.95
2019-05-22T03:32:26.229Z,72.03
2019-05-22T03:35:33.404Z,82.47
2019-05-22T03:38:38.816Z,83.70
2019-05-22T03:41:42.846Z,73.87
2019-05-22T03:44:47.423Z,73.95
2019-05-22T03:47:53.100Z,73.15
2019-05-22T03:51:08.749Z,64.75
2019-05-22T03:54:12.950Z,67.05
2019-05-22T03:57:16.556Z,67.32
2019-05-22T04:00:21.477Z,65.47
2019-05-22T04:03:26.698Z,64.77
2019-05-22T04:06:30.354Z,67.90
2019-05-22T04:09:34.686Z,66.40
2019-05-22T04:12:40.182Z,67.37
2019-05-22T04:15:45.352Z,65.62
2019-05-22T04:18:50.074Z,59.58
2019-05-22T04:21:54.266Z,59.20
2019-05-22T04:24:58.484Z,54.58
2019-05-22T04:28:02.374Z,51.10
2019-05-22T04:31:07.392Z,55.60
2019-05-22T04:34:11.487Z,59.53
2019-05-22T04:37:16.191Z,52.55
2019-05-22T04:40:26.046Z,50.45
2019-05-22T04:43:30.996Z,50.92
2019-05-22T04:46:34.595Z,50.48
2019-05-22T04:49:38.697Z,49.90
2019-05-22T04:52:42.287Z,47.00
2019-05-22T04:55:46.050Z,48.45
2019-05-22T04:58:49.703Z,44.42
2019-05-22T05:01:53.877Z,43.08
2019-05-22T05:04:59.268Z,46.33
2019-05-22T05:08:04.341Z,42.83
2019-05-22T05:11:08.313Z,46.35
2019-05-22T05:14:12.024Z,36.45
2019-05-22T05:17:15.966Z,42.33
2019-05-22T05:20:22.415Z,37.38
2019-05-22T05:23:25.566Z,37.78
2019-05-22T05:26:31.612Z,41.40
2019-05-22T05:29:35.279Z,39.38
2019-05-22T05:32:40.745Z,43.05
2019-05-22T05:35:45.310Z,43.87
2019-05-22T05:38:48.961Z,40.80
2019-05-22T05:41:52.764Z,47.38
2019-05-22T05:44:56.386Z,42.90
2019-05-22T05:48:03.381Z,43.92
2019-05-22T05:51:11.331Z,43.13
2019-05-22T05:54:15.866Z,48.10
2019-05-22T05:57:41.043Z,49.33
2019-05-22T06:00:47.344Z,42.30
2019-05-22T06:03:55.839Z,45.65
2019-05-22T06:07:19.248Z,43.05
2019-05-22T06:10:29.489Z,47.67
2019-05-22T06:13:34.036Z,44.45
2019-05-22T06:16:54.405Z,48.38
2019-05-22T06:20:04.135Z,39.10
2019-05-22T06:23:27.378Z,37.65
2019-05-22T06:26:39.679Z,48.15
2019-05-22T06:30:05.145Z,40.43
2019-05-22T06:33:13.347Z,37.93
2019-05-22T06:36:17.674Z,43.73
2019-05-22T06:39:21.817Z,38.55
2019-05-22T06:42:25.594Z,30.32
2019-05-22T06:45:29.669Z,30.17
2019-05-22T06:48:33.529Z,36.33
2019-05-22T06:51:37.093Z,34.75
2019-05-22T06:54:40.959Z,34.92
2019-05-22T06:57:44.788Z,36.00
2019-05-22T07:00:48.380Z,30.55
2019-05-22T07:03:52.077Z,35.15
2019-05-22T07:06:56.318Z,34.35
2019-05-22T07:10:00.260Z,31.37
2019-05-22T07:13:05.056Z,33.18
2019-05-22T07:16:08.663Z,30.00
2019-05-22T07:19:12.846Z,35.55
2019-05-22T07:22:16.452Z,30.80
2019-05-22T07:25:21.348Z,35.13
2019-05-22T07:28:26.070Z,27.73
2019-05-22T07:31:29.722Z,27.82
2019-05-22T07:34:33.776Z,30.90
2019-05-22T07:37:45.558Z,30.15
2019-05-22T07:40:51.547Z,26.52
2019-05-22T07:43:55.433Z,25.65
2019-05-22T07:46:59.840Z,25.23
2019-05-22T07:50:05.051Z,23.22
2019-05-22T07:53:08.849Z,23.35
2019-05-22T07:56:14.070Z,25.60
2019-05-22T07:59:17.892Z,23.00
2019-05-22T08:02:24.743Z,24.27
2019-05-22T08:05:30.337Z,21.75
2019-05-22T08:08:37.115Z,23.87
2019-05-22T08:11:41.563Z,17.70
2019-05-22T08:14:46.040Z,23.83
2019-05-22T08:17:49.676Z,19.60
2019-05-22T08:20:53.421Z,18.45
2019-05-22T08:23:57.370Z,17.75
2019-05-22T08:27:01.369Z,19.45
2019-05-22T08:30:07.841Z,21.85
2019-05-22T08:33:15.268Z,17.25
2019-05-22T08:36:18.842Z,21.57
2019-05-22T08:39:23.120Z,21.10
2019-05-22T08:42:27.718Z,19.45
2019-05-22T08:45:32.889Z,24.25
2019-05-22T08:48:39.012Z,21.52
2019-05-22T08:51:42.576Z,20.57
2019-05-22T08:54:48.234Z,17.02
2019-05-22T08:57:52.501Z,17.95
2019-05-22T09:00:56.688Z,19.80
2019-05-22T09:04:00.362Z,19.20
2019-05-22T09:07:05.638Z,22.50
2019-05-22T09:10:09.880Z,19.15
2019-05-22T09:13:13.479Z,19.65
2019-05-22T09:16:18.180Z,17.07
2019-05-22T09:19:22.108Z,17.52
2019-05-22T09:22:39.612Z,17.95
2019-05-22T09:25:32.915Z,17.25
2019-05-22T09:28:38.216Z,17.67
2019-05-22T09:31:41.999Z,17.27
2019-05-22T09:34:45.716Z,17.67
2019-05-22T09:37:49.342Z,18.32
2019-05-22T09:40:53.500Z,15.88
2019-05-22T09:43:57.140Z,17.67
2019-05-22T09:47:00.849Z,18.37
2019-05-22T09:50:07.245Z,16.65
2019-05-22T09:53:11.466Z,18.82
2019-05-22T09:56:15.376Z,15.08
2019-05-22T09:59:19.740Z,17.52
2019-05-22T10:02:23.928Z,19.73
2019-05-22T10:05:27.647Z,19.12
2019-05-22T10:08:31.350Z,17.67
2019-05-22T10:11:35.565Z,16.52
2019-05-22T10:14:39.665Z,15.70
2019-05-22T10:17:49.287Z,16.50
2019-05-22T10:20:53.605Z,20.10
2019-05-22T10:23:57.696Z,17.07
2019-05-22T10:27:02.080Z,19.07
2019-05-22T10:30:09.795Z,17.40
2019-05-22T10:33:13.496Z,21.87
2019-05-22T10:36:17.519Z,14.47
2019-05-22T10:39:24.626Z,16.32
2019-05-22T10:42:27.667Z,16.37
2019-05-22T10:45:31.267Z,15.43
2019-05-22T10:48:34.912Z,18.05
2019-05-22T10:51:39.119Z,17.05
2019-05-22T10:54:42.733Z,16.90
2019-05-22T10:57:46.632Z,22.05
2019-05-22T11:00:50.369Z,17.95
2019-05-22T11:03:54.774Z,17.17
2019-05-22T11:06:58.616Z,20.20
2019-05-22T11:10:02.932Z,16.27
2019-05-22T11:13:06.682Z,14.05
2019-05-22T11:16:11.531Z,17.48
2019-05-22T11:19:15.740Z,16.77
2019-05-22T11:22:19.411Z,17.77
2019-05-22T11:25:23.438Z,19.07
2019-05-22T11:28:27.956Z,17.65
2019-05-22T11:31:31.609Z,17.67
2019-05-22T11:34:35.253Z,15.95
2019-05-22T11:37:39.938Z,16.00
2019-05-22T11:40:43.950Z,17.10
2019-05-22T11:43:47.756Z,14.05
2019-05-22T11:46:51.741Z,15.35
2019-05-22T11:49:55.411Z,13.40
2019-05-22T11:52:59.225Z,14.30
2019-05-22T11:56:03.177Z,15.85
2019-05-22T11:59:07.861Z,16.23
2019-05-22T12:02:13.283Z,15.70
2019-05-22T12:05:17.297Z,13.75
2019-05-22T12:08:21.316Z,17.23
2019-05-22T12:11:25.689Z,14.33
2019-05-22T12:14:29.329Z,11.90
2019-05-22T12:17:38.102Z,16.30
2019-05-22T12:20:39.645Z,15.38
2019-05-22T12:23:43.692Z,15.53
2019-05-22T12:26:47.372Z,14.85
2019-05-22T12:29:51.735Z,13.53
2019-05-22T12:32:56.291Z,17.30
2019-05-22T12:36:01.167Z,15.80
2019-05-22T12:39:08.276Z,18.10
2019-05-22T12:42:13.601Z,16.05
2019-05-22T12:45:19.662Z,14.53
2019-05-22T12:48:23.306Z,18.37
2019-05-22T12:51:27.872Z,17.35
2019-05-22T12:54:45.927Z,18.62
2019-05-22T12:57:37.576Z,17.95
2019-05-22T13:00:41.731Z,21.00
2019-05-22T13:03:46.952Z,18.85
2019-05-22T13:06:50.811Z,23.25
2019-05-22T13:09:54.569Z,19.87
2019-05-22T13:12:58.663Z,20.65
2019-05-22T13:16:02.724Z,23.57
2019-05-22T13:19:06.523Z,21.93
2019-05-22T13:22:14.788Z,28.27
2019-05-22T13:25:20.309Z,27.05
2019-05-22T13:28:25.525Z,25.60
2019-05-22T13:31:29.511Z,30.72
2019-05-22T13:34:33.198Z,27.93
2019-05-22T13:37:36.754Z,27.48
2019-05-22T13:40:40.613Z,27.45
2019-05-22T13:43:44.575Z,29.77
2019-05-22T13:46:48.380Z,32.48
2019-05-22T13:49:52.283Z,26.77
2019-05-22T13:52:56.420Z,26.80
2019-05-22T13:56:01.194Z,30.45
2019-05-22T13:59:05.793Z,26.23
2019-05-22T14:02:09.519Z,26.85
2019-05-22T14:05:13.957Z,24.98
2019-05-22T14:08:18.356Z,27.05
2019-05-22T14:11:22.713Z,28.80
2019-05-22T14:14:26.499Z,28.77
2019-05-22T14:17:31.347Z,30.57
2019-05-22T14:20:35.088Z,33.40
2019-05-22T14:23:39.399Z,32.33
2019-05-22T14:26:43.035Z,33.80
2019-05-22T14:29:46.706Z,33.88
2019-05-22T14:32:50.254Z,27.27
2019-05-22T14:35:55.812Z,27.70
2019-05-22T14:38:59.804Z,23.75
2019-05-22T14:42:03.934Z,22.07
2019-05-22T14:45:13.922Z,22.07
2019-05-22T14:48:17.828Z,20.10
2019-05-22T14:51:23.473Z,20.23
2019-05-22T14:54:27.242Z,17.07
2019-05-22T14:57:31.668Z,19.07
2019-05-22T15:00:36.635Z,24.65
2019-05-22T15:03:40.630Z,22.50
2019-05-22T15:06:44.320Z,19.60
2019-05-22T15:09:47.913Z,21.15
2019-05-22T15:12:51.701Z,22.42
2019-05-22T15:15:55.424Z,19.65
2019-05-22T15:18:59.015Z,20.92
2019-05-22T15:22:02.667Z,18.80
2019-05-22T15:25:10.851Z,19.12
2019-05-22T15:28:14.413Z,16.45
2019-05-22T15:31:18.047Z,19.35
2019-05-22T15:34:24.924Z,14.93
2019-05-22T15:44:45.484Z,19.62
2019-05-22T15:48:02.398Z,16.48
2019-05-22T15:52:44.261Z,14.73
2019-05-22T15:54:23.856Z,13.70
2019-05-22T15:57:25.775Z,15.85
2019-05-22T16:00:35.750Z,15.60
2019-05-22T16:03:42.741Z,24.57
2019-05-22T16:06:56.097Z,21.65
2019-05-22T16:09:59.981Z,26.82
2019-05-22T16:13:06.364Z,16.45
2019-05-22T16:16:11.961Z,20.88
2019-05-22T16:19:16.176Z,16.48
2019-05-22T16:22:22.880Z,17.82
2019-05-22T16:25:27.591Z,17.75
2019-05-22T16:28:36.055Z,15.83
2019-05-22T16:31:49.942Z,16.65
2019-05-22T16:34:55.077Z,16.17
2019-05-22T16:37:58.647Z,14.10
2019-05-22T16:41:02.331Z,17.32
2019-05-22T16:44:06.306Z,22.70
2019-05-22T16:47:10.966Z,16.27
2019-05-22T16:50:18.498Z,13.58
2019-05-22T16:53:24.665Z,14.63
2019-05-22T16:56:29.057Z,15.93
2019-05-22T16:59:36.713Z,16.65
2019-05-22T17:02:40.638Z,17.85
2019-05-22T17:05:44.674Z,13.78
2019-05-22T17:08:49.901Z,15.03
2019-05-22T17:11:54.021Z,13.32
2019-05-22T17:14:57.636Z,18.17
2019-05-22T17:18:01.297Z,18.50
2019-05-22T17:21:06.351Z,14.63
2019-05-22T17:24:13.125Z,14.15
2019-05-22T17:27:17.698Z,19.92
2019-05-22T17:30:22.978Z,13.53
2019-05-22T17:33:27.318Z,16.52
2019-05-22T17:36:31.863Z,16.00
2019-05-22T17:39:38.253Z,16.67
2019-05-22T17:42:42.636Z,9.73
2019-05-22T17:45:46.877Z,11.38
2019-05-22T17:48:52.006Z,13.78
2019-05-22T17:51:55.884Z,16.27
2019-05-22T17:55:01.615Z,9.45
2019-05-22T17:58:06.591Z,9.70
2019-05-22T18:01:11.335Z,11.45
2019-05-22T18:04:15.112Z,12.10
2019-05-22T18:07:22.478Z,14.45
2019-05-22T18:10:26.847Z,12.37
2019-05-22T18:13:31.126Z,11.73
2019-05-22T18:16:35.170Z,15.65
2019-05-22T18:19:38.954Z,11.38
2019-05-22T18:22:42.688Z,16.05
2019-05-22T18:25:48.179Z,12.80
2019-05-22T18:28:51.837Z,9.88
2019-05-22T18:31:55.921Z,12.15
2019-05-22T18:34:59.639Z,11.28
2019-05-22T18:38:04.780Z,11.75
2019-05-22T18:41:08.749Z,12.23
2019-05-22T18:44:14.146Z,13.18
2019-05-22T18:47:21.583Z,15.40
2019-05-22T18:50:24.914Z,13.15
2019-05-22T18:53:29.516Z,12.10
2019-05-22T18:56:34.787Z,13.62
2019-05-22T18:59:38.370Z,14.40
2019-05-22T19:02:42.310Z,9.10
2019-05-22T19:05:48.737Z,15.83
2019-05-22T19:08:58.995Z,15.20
2019-05-22T19:12:07.270Z,15.75
2019-05-22T19:15:13.289Z,20.40
2019-05-22T19:18:16.974Z,14.23
2019-05-22T19:21:20.503Z,12.55
2019-05-22T19:24:24.086Z,13.83
2019-05-22T19:27:27.654Z,13.43
2019-05-22T19:30:31.298Z,15.23
2019-05-22T19:33:36.583Z,14.90
2019-05-22T19:36:40.245Z,14.13
2019-05-22T19:39:43.832Z,13.40
2019-05-22T19:42:47.643Z,12.53
2019-05-22T19:45:51.659Z,11.75
2019-05-22T19:48:55.813Z,11.50
2019-05-22T19:51:59.718Z,11.90
2019-05-22T19:55:06.968Z,10.95
2019-05-22T19:58:10.781Z,14.38
2019-05-22T20:01:14.399Z,10.32
2019-05-22T20:04:18.326Z,12.95
2019-05-22T20:07:22.359Z,13.20
2019-05-22T20:10:29.275Z,9.30
2019-05-22T20:13:33.491Z,11.12
2019-05-22T20:16:39.559Z,11.43
2019-05-22T20:19:43.802Z,11.88
2019-05-22T20:22:53.424Z,14.00
2019-05-22T20:25:57.102Z,9.50
2019-05-22T20:29:01.546Z,9.85
2019-05-22T20:32:06.585Z,9.45
2019-05-22T20:35:11.358Z,10.82
2019-05-22T20:38:17.053Z,7.00
2019-05-22T20:41:21.301Z,10.18
2019-05-22T20:44:25.201Z,8.95
2019-05-22T20:47:31.892Z,8.45
2019-05-22T20:50:40.489Z,11.03
2019-05-22T20:53:54.118Z,10.03
2019-05-22T20:56:55.210Z,9.68
2019-05-22T21:00:02.271Z,7.92
2019-05-22T21:03:06.284Z,8.98
2019-05-22T21:06:14.399Z,8.70
2019-05-22T21:09:19.777Z,10.28
2019-05-22T21:12:25.668Z,7.95
2019-05-22T21:15:31.289Z,9.90
2019-05-22T21:18:38.451Z,10.55
2019-05-22T21:21:42.379Z,8.85
2019-05-22T21:24:46.299Z,9.68
2019-05-22T21:27:50.718Z,9.93
2019-05-22T21:30:56.861Z,10.85
2019-05-22T21:34:00.521Z,11.80
2019-05-22T21:37:05.560Z,10.25
2019-05-22T21:40:09.535Z,10.93
2019-05-22T21:43:15.344Z,13.03
2019-05-22T21:46:25.666Z,8.03
2019-05-22T21:49:29.762Z,12.82
2019-05-22T21:52:36.149Z,8.88
2019-05-22T21:55:46.999Z,9.83
2019-05-22T21:58:51.172Z,13.18
2019-05-22T22:02:02.804Z,7.80
2019-05-22T22:05:11.237Z,14.37
2019-05-22T22:08:15.333Z,8.58
2019-05-22T22:11:21.801Z,7.17
2019-05-22T22:14:26.123Z,10.40
2019-05-22T22:17:31.116Z,12.00
2019-05-22T22:20:35.153Z,10.50
2019-05-22T22:23:40.166Z,12.30
2019-05-22T22:26:51.936Z,10.88
2019-05-22T22:29:57.218Z,11.63
2019-05-22T22:33:10.551Z,10.68
2019-05-22T22:36:17.302Z,10.13
2019-05-22T22:39:21.672Z,8.93
2019-05-22T22:42:29.248Z,12.25
2019-05-22T22:45:42.189Z,11.38
2019-05-22T22:48:48.418Z,12.90
2019-05-22T22:51:53.222Z,12.05
2019-05-22T22:54:58.464Z,10.98
2019-05-22T22:58:16.527Z,8.63
2019-05-22T23:01:18.374Z,11.30
2019-05-22T23:04:24.486Z,9.08
2019-05-22T23:07:30.465Z,9.18
2019-05-22T23:10:34.458Z,9.75
2019-05-22T23:13:38.429Z,12.68
2019-05-22T23:16:43.750Z,10.45
2019-05-22T23:19:47.245Z,15.78
2019-05-22T23:22:49.676Z,10.72
2019-05-22T23:25:53.576Z,15.68
2019-05-22T23:28:59.115Z,13.50
2019-05-22T23:32:05.332Z,10.55
2019-05-22T23:35:11.129Z,19.87
2019-05-22T23:38:15.486Z,18.60
2019-05-22T23:41:20.275Z,19.65
2019-05-22T23:44:25.243Z,17.90
2019-05-22T23:47:30.475Z,17.32
2019-05-22T23:50:36.795Z,17.70
2019-05-22T23:53:42.221Z,21.48
2019-05-22T23:56:45.937Z,19.35
2019-05-22T23:59:52.346Z,17.62
